Time;durP1;ratioP1;P1;durP2;ratioP2;P2;SDS_P1;SDS_P2;PMS_P1;PMS_P2;Temp;Humidity;BMP_temperature;BMP_pressure;BME280_temperature;BME280_humidity;BME280_pressure;Samples;Min_cycle;Max_cycle;Signal;HPM_P1;HPM_P2
2022/12/02 00:02:32;;;;;;;5.80;2.13;;;;;;;7.84;100.00;101345.66;4887132;29;20516;-93
2022/12/02 00:05:25;;;;;;;5.82;1.95;;;;;;;7.79;100.00;101345.97;4891142;29;20481;-93
2022/12/02 00:07:57;;;;;;;4.10;2.58;;;;;;;7.76;100.00;101346.19;4892304;29;20127;-93
2022/12/02 00:10:32;;;;;;;9.40;2.83;;;;;;;7.79;100.00;101348.63;4892708;29;20669;-93
2022/12/02 00:13:15;;;;;;;5.80;2.28;;;;;;;7.73;100.00;101343.78;4870714;29;20040;-93
2022/12/02 00:15:47;;;;;;;4.88;2.08;;;;;;;7.70;100.00;101343.97;4899253;29;20048;-92
2022/12/02 00:18:17;;;;;;;4.03;2.30;;;;;;;7.67;100.00;101338.91;4915730;29;20060;-93
2022/12/02 00:20:46;;;;;;;15.10;2.97;;;;;;;7.63;100.00;101334.81;4880432;29;20075;-92
2022/12/02 00:23:14;;;;;;;10.27;2.78;;;;;;;7.61;100.00;101331.44;4880815;29;20119;-92
2022/12/02 00:25:48;;;;;;;4.60;2.40;;;;;;;7.60;100.00;101329.75;4864626;29;20053;-92
2022/12/02 00:28:18;;;;;;;6.07;2.60;;;;;;;7.59;100.00;101335.94;4868846;29;20028;-93
2022/12/02 00:30:48;;;;;;;8.18;2.47;;;;;;;7.56;100.00;101329.13;4889923;29;20484;-92
2022/12/02 00:33:17;;;;;;;5.80;2.33;;;;;;;7.49;100.00;101323.41;4891102;29;20118;-93
2022/12/02 00:35:46;;;;;;;6.85;2.40;;;;;;;7.50;100.00;101327.72;4899565;29;20553;-93
2022/12/02 00:38:13;;;;;;;6.03;2.78;;;;;;;7.49;100.00;101325.19;4881549;29;20381;-92
2022/12/02 00:40:42;;;;;;;5.93;2.47;;;;;;;7.53;100.00;101332.78;4910710;29;20060;-93
2022/12/02 00:48:45;;;;;;;7.72;2.60;;;;;;;7.56;100.00;101329.94;4885875;29;20032;-93
2022/12/02 00:51:12;;;;;;;7.68;2.35;;;;;;;7.60;100.00;101325.31;4882274;29;20040;-92
2022/12/02 00:53:40;;;;;;;5.28;2.30;;;;;;;7.57;100.00;101318.50;4889424;29;20072;-93
2022/12/02 00:56:08;;;;;;;7.53;2.25;;;;;;;7.57;100.00;101315.00;4881921;29;20134;-93
2022/12/02 00:58:36;;;;;;;7.32;2.67;;;;;;;7.54;100.00;101315.22;4881002;29;20100;-93
2022/12/02 01:01:04;;;;;;;5.28;2.38;;;;;;;7.52;100.00;101315.31;4902506;29;20035;-92
2022/12/02 01:03:32;;;;;;;11.50;3.63;;;;;;;7.50;100.00;101306.69;4912635;29;20038;-93
2022/12/02 01:06:00;;;;;;;5.95;2.65;;;;;;;7.50;100.00;101303.22;4872873;29;20056;-92
2022/12/02 01:08:28;;;;;;;6.28;2.25;;;;;;;7.44;100.00;101305.31;4884449;29;20091;-93
2022/12/02 01:10:56;;;;;;;5.50;2.72;;;;;;;7.43;100.00;101294.88;4901330;29;20040;-92
2022/12/02 01:13:26;;;;;;;8.43;2.97;;;;;;;7.38;100.00;101300.47;4867343;29;20119;-93
2022/12/02 01:15:54;;;;;;;10.93;2.97;;;;;;;7.38;100.00;101296.97;4883913;29;20044;-92
2022/12/02 01:18:21;;;;;;;6.95;3.08;;;;;;;7.38;100.00;101296.97;4882816;29;20047;-92
2022/12/02 01:20:51;;;;;;;8.70;3.13;;;;;;;7.41;100.00;101300.25;4870797;29;20564;-93
2022/12/02 01:23:20;;;;;;;7.40;2.47;;;;;;;7.42;100.00;101304.56;4887648;29;20095;-93
2022/12/02 01:25:48;;;;;;;9.70;2.90;;;;;;;7.44;100.00;101299.19;4869755;29;20032;-93
2022/12/02 01:28:16;;;;;;;7.28;2.83;;;;;;;7.50;100.00;101304.03;4868914;29;20040;-92
2022/12/02 01:30:45;;;;;;;2.95;2.40;;;;;;;7.53;100.00;101301.22;4867616;29;20048;-92
2022/12/02 01:33:13;;;;;;;5.65;2.63;;;;;;;7.60;100.00;101301.66;4895722;29;20047;-93
2022/12/02 01:35:40;;;;;;;7.93;2.30;;;;;;;7.58;100.00;101303.53;4889432;29;20044;-93
2022/12/02 01:38:08;;;;;;;6.68;2.10;;;;;;;7.57;100.00;101300.06;4895297;29;20469;-93
2022/12/02 01:40:37;;;;;;;4.70;2.70;;;;;;;7.51;100.00;101302.25;4896236;29;20066;-93
2022/12/02 01:43:04;;;;;;;6.60;2.55;;;;;;;7.47;100.00;101295.53;4903145;29;20532;-93
2022/12/02 01:45:32;;;;;;;8.32;3.05;;;;;;;7.43;100.00;101300.16;4917270;29;20405;-93
2022/12/02 01:48:01;;;;;;;7.28;2.70;;;;;;;7.46;100.00;101294.69;4913980;29;20055;-93
2022/12/02 01:50:30;;;;;;;11.35;2.80;;;;;;;7.44;100.00;101299.19;4917472;29;20034;-92
2022/12/02 01:53:00;;;;;;;6.47;2.78;;;;;;;7.46;100.00;101299.94;4912761;29;20401;-93
2022/12/02 01:55:29;;;;;;;6.95;3.00;;;;;;;7.47;100.00;101303.44;4919159;29;20118;-93
2022/12/02 01:57:58;;;;;;;11.30;3.22;;;;;;;7.47;100.00;101299.00;4916986;29;20040;-93
2022/12/02 02:00:27;;;;;;;14.30;2.70;;;;;;;7.51;100.00;101305.75;4920600;29;20473;-93
2022/12/02 02:02:56;;;;;;;4.38;2.22;;;;;;;7.51;100.00;101300.50;4891394;29;20444;-93
2022/12/02 02:05:29;;;;;;;7.50;2.90;;;;;;;7.53;100.00;101301.22;4916785;29;20046;-94
2022/12/02 02:08:06;;;;;;;4.75;2.08;;;;;;;7.54;100.00;101297.66;4898539;29;20047;-93
2022/12/02 02:10:37;;;;;;;7.13;3.35;;;;;;;7.51;100.00;101300.50;4905540;29;20480;-92
2022/12/02 02:13:09;;;;;;;5.47;2.35;;;;;;;7.49;100.00;101297.09;4919575;29;20032;-92
2022/12/02 02:15:41;;;;;;;4.05;2.33;;;;;;;7.43;100.00;101300.16;4909697;29;20504;-92
2022/12/02 02:18:12;;;;;;;6.03;2.42;;;;;;;7.35;100.00;101298.03;4892686;29;20039;-92
2022/12/02 02:20:42;;;;;;;4.13;2.17;;;;;;;7.30;100.00;101295.72;4919767;29;20043;-92
2022/12/02 02:23:20;;;;;;;12.05;4.05;;;;;;;7.24;100.00;101295.25;4901293;29;20491;-92
2022/12/02 02:25:51;;;;;;;6.72;2.50;;;;;;;7.14;100.00;101295.88;4892884;29;20401;-92
2022/12/02 02:28:25;;;;;;;13.18;2.47;;;;;;;7.03;100.00;101296.59;4903352;29;20118;-92
2022/12/02 02:30:57;;;;;;;6.78;2.53;;;;;;;6.97;100.00;101294.34;4927905;29;20054;-92
2022/12/02 02:33:34;;;;;;;8.23;2.47;;;;;;;6.93;100.00;101298.09;4911938;29;20040;-92
2022/12/02 02:36:03;;;;;;;8.23;2.65;;;;;;;6.87;100.00;101293.25;4934098;29;20031;-92
2022/12/02 02:38:31;;;;;;;8.05;2.47;;;;;;;6.82;100.00;101298.81;4900691;29;20059;-92
2022/12/02 02:41:00;;;;;;;6.72;2.72;;;;;;;6.79;100.00;101297.22;4903552;29;20064;-92
2022/12/02 02:43:30;;;;;;;6.65;2.70;;;;;;;6.76;100.00;101292.16;4904995;29;20031;-92
2022/12/02 02:46:01;;;;;;;9.43;3.03;;;;;;;6.72;100.00;101289.84;4904162;29;20039;-92
2022/12/02 02:48:34;;;;;;;5.93;2.97;;;;;;;6.67;100.00;101287.50;4916450;29;20043;-92
2022/12/02 02:51:03;;;;;;;6.00;2.65;;;;;;;6.63;100.00;101283.38;4902642;29;20058;-92
2022/12/02 02:53:33;;;;;;;6.03;2.58;;;;;;;6.61;100.00;101290.53;4904460;29;20166;-92
2022/12/02 02:56:04;;;;;;;10.50;2.67;;;;;;;6.60;100.00;101289.66;4895673;29;20051;-92
2022/12/02 02:58:36;;;;;;;10.52;3.30;;;;;;;6.58;100.00;101294.16;4894503;29;20039;-92
2022/12/02 03:01:19;;;;;;;9.57;2.70;;;;;;;6.59;100.00;101288.00;4934998;29;20039;-92
2022/12/02 03:03:54;;;;;;;7.95;2.83;;;;;;;6.58;100.00;101289.75;4893712;29;20038;-92
2022/12/02 03:06:25;;;;;;;9.68;2.80;;;;;;;6.55;100.00;101282.06;4909654;29;20039;-92
2022/12/02 03:08:54;;;;;;;5.95;3.17;;;;;;;6.55;100.00;101291.72;4917361;29;20035;-92
2022/12/02 03:11:22;;;;;;;7.25;2.90;;;;;;;6.56;100.00;101286.38;4898237;29;20043;-91
2022/12/02 03:13:51;;;;;;;8.30;2.97;;;;;;;6.57;100.00;101285.47;4918919;29;20940;-92
2022/12/02 03:16:22;;;;;;;10.05;3.38;;;;;;;6.63;100.00;101289.47;4902530;29;20035;-92
2022/12/02 03:18:52;;;;;;;12.00;2.88;;;;;;;6.65;100.00;101282.34;4903510;29;20519;-92
2022/12/02 03:21:20;;;;;;;11.75;3.00;;;;;;;6.69;100.00;101283.81;4918846;29;20134;-92
2022/12/02 03:23:50;;;;;;;6.45;2.72;;;;;;;6.74;100.00;101285.31;4909036;29;20490;-92
2022/12/02 03:26:18;;;;;;;11.98;3.17;;;;;;;6.79;100.00;101286.72;4903546;29;20058;-92
2022/12/02 03:28:47;;;;;;;11.80;3.03;;;;;;;6.82;100.00;101276.00;4903556;29;20035;-92
2022/12/02 03:31:17;;;;;;;6.70;2.72;;;;;;;6.86;100.00;101271.41;4913957;29;20031;-92
2022/12/02 03:33:46;;;;;;;7.38;2.95;;;;;;;6.86;100.00;101265.28;4887690;29;20044;-92
2022/12/02 03:36:14;;;;;;;8.15;2.78;;;;;;;6.87;100.00;101259.94;4889610;29;20039;-92
2022/12/02 03:38:43;;;;;;;7.50;3.22;;;;;;;6.86;100.00;101260.03;4901778;29;20048;-92
2022/12/02 03:41:11;;;;;;;7.78;3.05;;;;;;;6.85;100.00;101268.88;4918283;29;20055;-92
2022/12/02 03:43:41;;;;;;;8.07;2.65;;;;;;;6.83;100.00;101261.09;4896725;29;20046;-92
2022/12/02 03:46:11;;;;;;;4.78;2.47;;;;;;;6.78;100.00;101266.66;4920951;29;20039;-93
2022/12/02 03:48:39;;;;;;;12.07;2.85;;;;;;;6.72;100.00;101260.94;4921816;29;20050;-93
2022/12/02 03:51:10;;;;;;;5.30;2.65;;;;;;;6.69;100.00;101267.22;4925999;29;20067;-92
2022/12/02 03:53:38;;;;;;;7.70;2.70;;;;;;;6.64;100.00;101266.69;4929261;29;20035;-92
2022/12/02 03:56:09;;;;;;;8.88;3.10;;;;;;;6.61;100.00;101265.06;4907520;29;20049;-92
2022/12/02 03:58:47;;;;;;;6.78;3.00;;;;;;;6.62;100.00;101265.94;4896070;29;20039;-93
2022/12/02 04:01:18;;;;;;;13.77;3.72;;;;;;;6.60;100.00;101259.91;4911219;29;20035;-92
2022/12/02 04:03:48;;;;;;;11.25;3.38;;;;;;;6.56;100.00;101264.53;4901491;29;20043;-92
2022/12/02 04:06:18;;;;;;;10.25;2.85;;;;;;;6.53;100.00;101260.31;4921260;29;20030;-92
2022/12/02 04:08:48;;;;;;;7.70;2.88;;;;;;;6.50;100.00;101260.50;4888651;29;20039;-93
2022/12/02 04:11:17;;;;;;;6.43;2.90;;;;;;;6.50;100.00;101263.13;4895449;29;20483;-92
2022/12/02 04:13:45;;;;;;;5.35;3.13;;;;;;;6.49;100.00;101253.59;4890690;29;20039;-93
2022/12/02 04:16:12;;;;;;;8.48;3.28;;;;;;;6.52;100.00;101255.16;4923473;29;20047;-93
2022/12/02 04:18:40;;;;;;;6.53;3.42;;;;;;;6.49;100.00;101261.47;4918150;29;20039;-91
2022/12/02 04:21:10;;;;;;;8.68;2.83;;;;;;;6.53;100.00;101264.75;4916409;29;20031;-92
2022/12/02 04:23:39;;;;;;;18.90;4.70;;;;;;;6.51;100.00;101254.34;4917491;29;20047;-92
2022/12/02 04:26:06;;;;;;;7.32;2.80;;;;;;;6.52;100.00;101260.41;4899028;29;20381;-92
2022/12/02 04:28:34;;;;;;;7.05;2.83;;;;;;;6.55;100.00;101252.34;4898673;29;20054;-92
2022/12/02 04:31:02;;;;;;;11.55;3.10;;;;;;;6.56;100.00;101259.28;4911905;29;20550;-92
2022/12/02 04:33:29;;;;;;;11.07;2.95;;;;;;;6.59;100.00;101261.72;4920279;29;20044;-92
2022/12/02 04:35:58;;;;;;;7.95;3.25;;;;;;;6.61;100.00;101259.00;4901864;29;20492;-92
2022/12/02 04:38:27;;;;;;;8.07;3.28;;;;;;;6.65;100.00;101260.47;4912396;29;20043;-92
2022/12/02 04:40:55;;;;;;;6.30;2.70;;;;;;;6.66;100.00;101257.75;4931552;29;20052;-92
2022/12/02 04:43:23;;;;;;;4.22;2.58;;;;;;;6.73;100.00;101257.34;4894024;29;20028;-92
2022/12/02 04:45:51;;;;;;;6.32;2.75;;;;;;;6.71;100.00;101260.06;4913517;29;20590;-92
2022/12/02 04:48:21;;;;;;;9.20;3.00;;;;;;;6.80;100.00;101261.28;4905148;29;20031;-92
2022/12/02 04:50:50;;;;;;;4.65;2.70;;;;;;;6.82;100.00;101260.25;4920489;29;20118;-92
2022/12/02 04:53:18;;;;;;;6.60;3.03;;;;;;;6.87;100.00;101253.81;4901260;29;20032;-92
2022/12/02 04:55:45;;;;;;;6.13;2.80;;;;;;;6.94;100.00;101260.38;4914070;29;20036;-93
2022/12/02 04:58:14;;;;;;;5.30;2.83;;;;;;;6.98;100.00;101250.50;4928402;29;20102;-92
2022/12/02 05:00:42;;;;;;;7.88;2.97;;;;;;;6.99;100.00;101260.91;4891155;29;20107;-92
2022/12/02 05:03:09;;;;;;;9.00;3.63;;;;;;;6.97;100.00;101252.28;4913787;29;20028;-92
2022/12/02 05:05:37;;;;;;;5.88;2.80;;;;;;;7.01;100.00;101252.91;4884344;29;20045;-92
2022/12/02 05:08:05;;;;;;;10.00;3.15;;;;;;;7.03;100.00;101251.03;4928966;29;20034;-92
2022/12/02 05:10:33;;;;;;;11.85;3.15;;;;;;;7.07;100.00;101252.53;4906001;29;20036;-92
2022/12/02 05:13:00;;;;;;;8.70;3.33;;;;;;;7.04;100.00;101247.50;4901168;29;20106;-92
2022/12/02 05:15:29;;;;;;;6.70;2.92;;;;;;;7.03;100.00;101249.25;4905375;29;20038;-93
2022/12/02 05:17:57;;;;;;;4.90;2.35;;;;;;;7.05;100.00;101255.28;4902801;29;20150;-92
2022/12/02 05:20:25;;;;;;;7.85;2.80;;;;;;;7.06;100.00;101246.44;4922053;29;20036;-93
2022/12/02 05:22:52;;;;;;;6.70;2.70;;;;;;;7.06;100.00;101243.81;4905355;29;20098;-92
2022/12/02 05:25:21;;;;;;;6.00;2.40;;;;;;;7.10;100.00;101247.09;4918626;29;20069;-92
2022/12/02 05:27:49;;;;;;;12.13;3.28;;;;;;;7.12;100.00;101244.34;4901745;29;20119;-92
2022/12/02 05:30:19;;;;;;;6.13;2.92;;;;;;;7.15;100.00;101252.84;4912742;29;20082;-92
2022/12/02 05:32:47;;;;;;;7.18;3.17;;;;;;;7.14;100.00;101253.81;4922454;29;20039;-92
2022/12/02 05:35:15;;;;;;;10.75;3.28;;;;;;;7.13;100.00;101251.28;4912398;29;20070;-92
2022/12/02 05:37:44;;;;;;;5.65;2.97;;;;;;;7.15;100.00;101252.03;4885250;29;20083;-92
2022/12/02 05:40:11;;;;;;;5.22;2.83;;;;;;;7.11;100.00;101253.16;4910299;29;20074;-92
2022/12/02 05:42:40;;;;;;;7.07;2.70;;;;;;;7.09;100.00;101255.06;4890271;29;20043;-92
2022/12/02 05:45:22;;;;;;;7.65;3.15;;;;;;;7.06;100.00;101256.94;4916781;29;20043;-92
2022/12/02 05:47:55;;;;;;;9.38;3.15;;;;;;;7.07;100.00;101260.44;4928920;29;20043;-92
2022/12/02 05:50:25;;;;;;;8.30;3.30;;;;;;;7.05;100.00;101257.91;4902169;29;20473;-92
2022/12/02 05:52:56;;;;;;;8.38;3.58;;;;;;;7.05;100.00;101259.69;4917359;29;20562;-92
2022/12/02 05:55:23;;;;;;;8.55;3.08;;;;;;;7.03;100.00;101258.94;4909678;29;20032;-92
2022/12/02 05:57:59;;;;;;;8.18;3.05;;;;;;;7.05;100.00;101260.53;4923127;29;20046;-92
2022/12/02 06:00:27;;;;;;;5.80;2.85;;;;;;;7.01;100.00;101251.13;4918942;29;20563;-92
2022/12/02 06:02:58;;;;;;;7.88;3.22;;;;;;;7.04;100.00;101261.44;4907844;29;20043;-92
2022/12/02 06:05:40;;;;;;;8.45;3.17;;;;;;;7.02;100.00;101268.63;4906004;29;20432;-92
2022/12/02 06:08:34;;;;;;;10.65;3.70;;;;;;;6.98;100.00;101263.63;4936975;29;20043;-92
2022/12/02 06:11:37;;;;;;;8.57;3.15;;;;;;;6.98;100.00;101266.25;4917737;29;20130;-92
2022/12/02 06:14:19;;;;;;;5.88;3.03;;;;;;;6.99;100.00;101268.78;4891418;29;20058;-92
2022/12/02 06:16:53;;;;;;;7.28;3.17;;;;;;;7.00;100.00;101270.50;4921024;29;20032;-92
2022/12/02 06:19:41;;;;;;;7.85;2.70;;;;;;;6.98;100.00;101264.50;4906731;29;20102;-92
2022/12/02 06:22:20;;;;;;;4.25;2.72;;;;;;;6.99;100.00;101274.03;4912596;29;20028;-92
2022/12/02 06:24:50;;;;;;;7.80;3.55;;;;;;;7.01;100.00;101268.69;4921632;29;20070;-92
2022/12/02 06:27:21;;;;;;;5.88;3.00;;;;;;;7.03;100.00;101275.56;4906379;29;20558;-92
2022/12/02 06:30:14;;;;;;;4.28;2.58;;;;;;;7.01;100.00;101277.44;4898578;29;20131;-92
2022/12/02 06:32:50;;;;;;;6.10;3.05;;;;;;;7.00;100.00;101275.75;4903201;29;20035;-92
2022/12/02 06:35:33;;;;;;;7.60;3.47;;;;;;;7.00;100.00;101280.16;4907336;29;20098;-92
2022/12/02 06:38:16;;;;;;;7.57;2.83;;;;;;;7.01;100.00;101271.31;4916307;29;20048;-92
2022/12/02 06:40:46;;;;;;;5.25;3.00;;;;;;;6.97;100.00;101281.22;4913733;29;20059;-92
2022/12/02 06:43:31;;;;;;;8.85;2.92;;;;;;;6.98;100.00;101282.88;4911706;29;20062;-91
2022/12/02 06:46:00;;;;;;;6.97;3.03;;;;;;;6.97;100.00;101283.84;4901010;29;20044;-92
2022/12/02 06:48:39;;;;;;;12.55;2.90;;;;;;;7.00;100.00;101283.63;4918177;29;20120;-92
2022/12/02 06:51:21;;;;;;;9.15;3.30;;;;;;;6.94;100.00;101287.50;4913928;29;20047;-92
2022/12/02 06:53:48;;;;;;;7.60;3.38;;;;;;;6.88;100.00;101300.22;4917879;29;20094;-92
2022/12/02 06:56:17;;;;;;;7.93;3.65;;;;;;;6.80;100.00;101293.66;4914218;29;20133;-92
2022/12/02 06:58:47;;;;;;;7.40;3.10;;;;;;;6.78;100.00;101299.94;4923175;29;20461;-92
2022/12/02 07:01:20;;;;;;;9.10;3.63;;;;;;;6.76;100.00;101297.41;4891335;29;20461;-92
2022/12/02 07:04:23;;;;;;;9.38;4.40;;;;;;;6.76;100.00;101307.06;4921457;29;20050;-92
2022/12/02 07:06:55;;;;;;;8.63;4.88;;;;;;;6.73;100.00;101299.38;4916361;29;20051;-92
2022/12/02 07:09:50;;;;;;;7.68;3.70;;;;;;;6.76;100.00;101304.44;4903835;29;20063;-92
2022/12/02 07:12:44;;;;;;;10.55;3.97;;;;;;;6.76;100.00;101304.44;4915045;29;20476;-92
2022/12/02 07:15:16;;;;;;;9.57;2.90;;;;;;;6.77;100.00;101306.16;4904182;29;20522;-91
2022/12/02 07:17:46;;;;;;;8.45;3.83;;;;;;;6.82;100.00;101304.06;4893505;29;20032;-92
2022/12/02 07:20:17;;;;;;;10.80;4.13;;;;;;;6.85;100.00;101313.56;4903591;29;20043;-91
2022/12/02 07:23:00;;;;;;;8.93;3.55;;;;;;;6.85;100.00;101311.75;4914054;29;20028;-91
2022/12/02 07:25:35;;;;;;;6.57;3.85;;;;;;;6.81;100.00;101318.16;4898050;29;20055;-92
2022/12/02 07:28:15;;;;;;;9.05;3.90;;;;;;;6.81;100.00;101316.38;4911971;29;20035;-92
2022/12/02 07:30:59;;;;;;;5.13;3.92;;;;;;;6.82;100.00;101320.69;4918942;29;20130;-92
2022/12/02 07:33:29;;;;;;;8.55;3.90;;;;;;;6.86;100.00;101320.47;4906506;29;20118;-89
2022/12/02 07:35:57;;;;;;;8.00;3.50;;;;;;;6.87;100.00;101323.00;4919780;29;20078;-92
2022/12/02 07:38:24;;;;;;;5.80;3.90;;;;;;;6.89;100.00;101321.13;4928449;29;20043;-92
2022/12/02 07:40:52;;;;;;;11.25;4.10;;;;;;;6.82;100.00;101318.03;4901886;29;20175;-91
2022/12/02 07:43:24;;;;;;;8.65;3.40;;;;;;;6.77;100.00;101325.38;4931543;29;20031;-92
2022/12/02 07:45:53;;;;;;;9.70;3.50;;;;;;;6.69;100.00;101319.75;4920113;29;20132;-92
2022/12/02 07:48:22;;;;;;;7.32;4.05;;;;;;;6.62;100.00;101315.84;4902035;29;20103;-92
2022/12/02 07:50:50;;;;;;;12.80;4.18;;;;;;;6.61;100.00;101322.03;4919307;29;20071;-92
2022/12/02 07:53:19;;;;;;;10.25;3.45;;;;;;;6.65;100.00;101328.78;4883808;29;20477;-92
2022/12/02 07:55:48;;;;;;;8.32;4.22;;;;;;;6.70;100.00;101330.16;4932956;29;20067;-92
2022/12/02 07:58:17;;;;;;;7.38;3.60;;;;;;;6.78;100.00;101331.47;4904756;29;20032;-92
2022/12/02 08:00:45;;;;;;;12.68;3.97;;;;;;;6.82;100.00;101341.69;4901640;29;20118;-92
2022/12/02 08:03:12;;;;;;;12.40;4.00;;;;;;;6.88;100.00;101334.38;4911525;29;20118;-92
2022/12/02 08:05:40;;;;;;;8.30;3.75;;;;;;;6.86;100.00;101342.34;4908128;29;20134;-92
2022/12/02 08:08:08;;;;;;;10.10;4.35;;;;;;;6.86;100.00;101337.09;4887049;29;20126;-92
2022/12/02 08:10:36;;;;;;;7.28;4.28;;;;;;;6.82;100.00;101344.31;4914662;29;20101;-92
2022/12/02 08:13:05;;;;;;;12.15;3.90;;;;;;;6.75;100.00;101348.28;4919255;29;20047;-92
2022/12/02 08:15:33;;;;;;;7.85;4.13;;;;;;;6.67;100.00;101342.66;4915919;29;20058;-92
2022/12/02 08:18:00;;;;;;;7.38;4.05;;;;;;;6.67;100.00;101347.94;4887201;29;20043;-92
2022/12/02 08:20:29;;;;;;;6.68;4.10;;;;;;;6.66;100.00;101348.84;4912300;29;20045;-92
2022/12/02 08:22:57;;;;;;;9.68;3.63;;;;;;;6.67;100.00;101351.38;4903635;29;20042;-92
2022/12/02 08:25:24;;;;;;;11.30;4.45;;;;;;;6.63;100.00;101359.53;4908218;29;20090;-92
2022/12/02 08:27:52;;;;;;;10.93;4.57;;;;;;;6.63;100.00;101360.41;4919106;29;20042;-93
2022/12/02 08:30:20;;;;;;;13.00;4.40;;;;;;;6.63;100.00;101370.06;4900847;29;20052;-92
2022/12/02 08:32:48;;;;;;;8.30;3.90;;;;;;;6.65;100.00;101368.19;4925813;29;20520;-92
2022/12/02 08:35:15;;;;;;;12.45;4.47;;;;;;;6.66;100.00;101364.59;4921416;29;20485;-92
2022/12/02 08:37:43;;;;;;;10.50;4.00;;;;;;;6.67;100.00;101363.69;4906922;29;20032;-92
2022/12/02 08:40:12;;;;;;;14.05;4.30;;;;;;;6.63;100.00;101378.78;4892940;29;20400;-92
2022/12/02 08:42:41;;;;;;;7.63;3.67;;;;;;;6.58;100.00;101379.06;4904680;29;20046;-92
2022/12/02 08:45:11;;;;;;;7.45;3.33;;;;;;;6.55;100.00;101378.41;4916620;29;20135;-92
2022/12/02 08:47:39;;;;;;;12.95;3.97;;;;;;;6.50;100.00;101380.50;4917274;29;20040;-92
2022/12/02 08:50:09;;;;;;;10.07;3.78;;;;;;;6.47;100.00;101385.94;4904112;29;20039;-92
2022/12/02 08:52:37;;;;;;;6.65;3.83;;;;;;;6.38;100.00;101384.72;4917206;29;20028;-92
2022/12/02 08:55:06;;;;;;;9.73;3.65;;;;;;;6.38;100.00;101387.34;4920753;29;20039;-92
2022/12/02 08:57:34;;;;;;;9.52;4.10;;;;;;;6.33;100.00;101385.84;4903462;29;20035;-92
2022/12/02 09:00:04;;;;;;;5.97;4.32;;;;;;;6.31;100.00;101387.72;4899603;29;20481;-92
2022/12/02 09:02:32;;;;;;;15.05;4.60;;;;;;;6.25;100.00;101401.22;4933155;29;20040;-93
2022/12/02 09:05:00;;;;;;;6.80;3.45;;;;;;;6.20;100.00;101398.00;4919344;29;20051;-93
2022/12/02 09:07:28;;;;;;;11.13;5.63;;;;;;;6.13;100.00;101405.41;4896775;29;20035;-93
2022/12/02 09:09:56;;;;;;;10.25;5.78;;;;;;;6.15;100.00;101397.44;4897481;29;20192;-92
2022/12/02 09:12:26;;;;;;;10.32;5.60;;;;;;;6.08;100.00;101404.84;4915928;29;20036;-92
2022/12/02 09:14:54;;;;;;;9.65;5.80;;;;;;;6.00;100.00;101401.78;4897180;29;20063;-92
2022/12/02 09:17:22;;;;;;;13.68;5.65;;;;;;;5.95;100.00;101404.69;4916482;29;20039;-92
2022/12/02 09:19:50;;;;;;;8.13;5.72;;;;;;;5.94;100.00;101406.47;4906595;29;20583;-92
2022/12/02 09:22:17;;;;;;;8.15;4.80;;;;;;;5.93;100.00;101406.56;4924169;29;20450;-92
2022/12/02 09:24:45;;;;;;;11.15;5.75;;;;;;;5.96;100.00;101409.00;4917389;29;20040;-92
2022/12/02 09:27:13;;;;;;;10.40;5.50;;;;;;;5.97;100.00;101410.69;4917878;29;20051;-92
2022/12/02 09:29:41;;;;;;;10.50;5.05;;;;;;;6.00;100.00;101404.41;4911466;29;20075;-92
2022/12/02 09:32:08;;;;;;;14.35;5.75;;;;;;;6.05;100.00;101410.28;4903164;29;20409;-92
2022/12/02 09:34:36;;;;;;;11.95;5.72;;;;;;;6.10;100.00;101408.19;4885015;29;20043;-92
2022/12/02 09:37:04;;;;;;;13.82;6.03;;;;;;;6.08;100.00;101408.28;4918592;29;20035;-92
2022/12/02 09:39:33;;;;;;;10.60;6.05;;;;;;;6.00;100.00;101409.66;4896700;29;20039;-92
2022/12/02 09:42:03;;;;;;;11.23;6.25;;;;;;;5.88;100.00;101412.06;4930519;29;20077;-92
2022/12/02 09:44:33;;;;;;;14.40;6.88;;;;;;;5.82;100.00;101415.06;4931640;29;20110;-92
2022/12/02 09:47:02;;;;;;;12.70;7.20;;;;;;;5.77;100.00;101417.09;4906744;29;20036;-90
2022/12/02 09:49:33;;;;;;;15.65;7.32;;;;;;;5.75;100.00;101424.22;4901133;29;20035;-92
2022/12/02 09:52:05;;;;;;;13.85;7.90;;;;;;;5.80;100.00;101425.63;4904232;29;20444;-92
2022/12/02 09:54:35;;;;;;;11.88;7.78;;;;;;;5.84;100.00;101418.44;4900228;29;20091;-92
2022/12/02 09:57:14;;;;;;;12.40;6.28;;;;;;;5.87;100.00;101426.13;4914773;29;20042;-92
2022/12/02 09:59:44;;;;;;;10.77;6.05;;;;;;;5.85;100.00;101422.75;4903261;29;20039;-92
2022/12/02 10:02:24;;;;;;;9.55;5.47;;;;;;;5.86;100.00;101426.22;4904245;29;20063;-92
2022/12/02 10:04:57;;;;;;;13.52;6.00;;;;;;;5.84;100.00;101427.13;4903281;29;20043;-92
2022/12/02 10:07:28;;;;;;;19.83;5.20;;;;;;;5.90;100.00;101428.59;4916635;29;20453;-93
2022/12/02 10:10:00;;;;;;;13.88;4.72;;;;;;;5.99;100.00;101437.69;4892386;29;20071;-92
2022/12/02 10:12:30;;;;;;;11.23;4.88;;;;;;;6.06;100.00;101432.97;4903845;29;20171;-92
2022/12/02 10:14:59;;;;;;;8.35;4.40;;;;;;;6.16;100.00;101441.97;4904303;29;20039;-92
2022/12/02 10:17:27;;;;;;;6.45;4.60;;;;;;;6.23;100.00;101442.47;4896616;29;20066;-92
2022/12/02 10:19:56;;;;;;;9.50;4.95;;;;;;;6.30;100.00;101443.81;4923960;29;20039;-92
2022/12/02 10:22:23;;;;;;;10.80;4.57;;;;;;;6.34;100.00;101447.06;4903758;29;20036;-92
2022/12/02 10:24:53;;;;;;;12.85;5.22;;;;;;;6.44;100.00;101437.72;4920987;29;20039;-92
2022/12/02 10:27:26;;;;;;;13.73;5.03;;;;;;;6.52;100.00;101439.03;4927183;29;20043;-92
2022/12/02 10:30:16;;;;;;;6.32;4.50;;;;;;;6.56;100.00;101440.53;4930587;29;20039;-92
2022/12/02 10:33:03;;;;;;;9.98;4.63;;;;;;;6.65;100.00;101450.47;4914674;29;20036;-92
2022/12/02 10:35:50;;;;;;;9.02;5.10;;;;;;;6.60;100.00;101449.06;4925856;29;20043;-92
2022/12/02 10:38:34;;;;;;;6.82;5.20;;;;;;;6.50;100.00;101449.63;4894736;29;20036;-93
2022/12/02 10:41:23;;;;;;;11.10;5.53;;;;;;;6.44;100.00;101450.00;4936976;29;20096;-93
2022/12/02 10:43:53;;;;;;;11.02;7.68;;;;;;;6.40;100.00;101451.94;4905323;29;20560;-93
2022/12/02 10:46:23;;;;;;;15.88;7.82;;;;;;;6.37;100.00;101449.50;4887625;29;20040;-92
2022/12/02 10:48:53;;;;;;;15.02;9.05;;;;;;;6.41;100.00;101456.28;4937181;29;20040;-92
2022/12/02 10:51:23;;;;;;;16.55;10.65;;;;;;;6.44;100.00;101450.84;4908274;29;20039;-91
2022/12/02 10:53:57;;;;;;;22.50;13.07;;;;;;;6.43;100.00;101456.19;4887161;29;20130;-92
2022/12/02 10:56:28;;;;;;;16.67;9.18;;;;;;;6.44;100.00;101461.34;4906913;29;20036;-92
2022/12/02 10:59:00;;;;;;;14.13;8.05;;;;;;;6.45;100.00;101455.16;4942132;29;20055;-92
2022/12/02 11:01:30;;;;;;;14.32;6.88;;;;;;;6.49;100.00;101447.94;4920303;29;20028;-92
2022/12/02 11:03:59;;;;;;;11.68;6.90;;;;;;;6.55;100.00;101459.84;4901112;29;20031;-92
2022/12/02 11:06:27;;;;;;;12.05;7.60;;;;;;;6.60;100.00;101455.16;4905421;29;20035;-92
2022/12/02 11:08:55;;;;;;;17.17;7.45;;;;;;;6.70;100.00;101466.78;4924176;29;20047;-92
2022/12/02 11:11:23;;;;;;;14.57;7.00;;;;;;;6.68;100.00;101449.44;4907363;29;20040;-92
2022/12/02 11:13:52;;;;;;;11.40;7.18;;;;;;;6.69;100.00;101451.97;4919543;29;20142;-92
2022/12/02 11:16:29;;;;;;;14.25;7.72;;;;;;;6.75;100.00;101448.16;4893617;29;20091;-92
2022/12/02 11:19:07;;;;;;;14.43;7.45;;;;;;;6.78;100.00;101452.34;4901944;29;20036;-92
2022/12/02 11:21:41;;;;;;;12.10;6.85;;;;;;;6.82;100.00;101448.59;4905100;29;20074;-92
2022/12/02 11:24:26;;;;;;;10.18;7.15;;;;;;;6.91;100.00;101455.06;4895629;29;20043;-92
2022/12/02 11:27:01;;;;;;;14.23;7.78;;;;;;;6.92;100.00;101454.97;4914203;29;20110;-92
2022/12/02 11:29:37;;;;;;;14.27;7.72;;;;;;;6.97;100.00;101456.47;4920116;29;20489;-92
2022/12/02 11:32:21;;;;;;;15.00;8.30;;;;;;;7.07;100.00;101452.34;4924786;29;20035;-92
2022/12/02 11:34:49;;;;;;;21.83;7.57;;;;;;;7.12;100.00;101454.69;4920850;29;20487;-92
2022/12/02 11:37:39;;;;;;;15.38;6.75;;;;;;;7.20;100.00;101455.00;4924916;29;20252;-92
2022/12/02 11:40:13;;;;;;;12.10;6.47;;;;;;;7.19;100.00;101454.19;4895486;29;20063;-92
2022/12/02 11:42:44;;;;;;;11.13;6.88;;;;;;;7.23;100.00;101454.81;4904826;29;20047;-92
2022/12/02 11:45:17;;;;;;;16.63;6.35;;;;;;;7.29;100.00;101454.44;4905094;29;20090;-92
2022/12/02 11:47:53;;;;;;;19.05;6.50;;;;;;;7.39;100.00;101453.88;4920225;29;20062;-92